sensor_id;sensor_type;location;lat;lon;timestamp;P1;durP1;ratioP1;P2;durP2;ratioP2
69629;SDS011;56857;52.212;5.496;2022-09-27T00:01:25;4.47;;;0.90;;
69629;SDS011;56857;52.212;5.496;2022-09-27T00:03:53;7.18;;;1.02;;
69629;SDS011;56857;52.212;5.496;2022-09-27T00:06:24;5.68;;;0.90;;
69629;SDS011;56857;52.212;5.496;2022-09-27T00:08:53;8.80;;;0.95;;
69629;SDS011;56857;52.212;5.496;2022-09-27T00:11:22;3.35;;;0.77;;
69629;SDS011;56857;52.212;5.496;2022-09-27T00:13:54;9.35;;;1.30;;
69629;SDS011;56857;52.212;5.496;2022-09-27T00:16:21;4.35;;;0.70;;
69629;SDS011;56857;52.212;5.496;2022-09-27T00:18:47;3.20;;;0.60;;
69629;SDS011;56857;52.212;5.496;2022-09-27T00:21:13;3.40;;;0.70;;
69629;SDS011;56857;52.212;5.496;2022-09-27T00:23:39;6.07;;;0.90;;
69629;SDS011;56857;52.212;5.496;2022-09-27T00:26:05;1.88;;;0.70;;
69629;SDS011;56857;52.212;5.496;2022-09-27T00:28:33;2.03;;;0.75;;
69629;SDS011;56857;52.212;5.496;2022-09-27T00:30:58;6.97;;;0.80;;
69629;SDS011;56857;52.212;5.496;2022-09-27T00:33:24;2.55;;;0.60;;
69629;SDS011;56857;52.212;5.496;2022-09-27T00:35:51;4.38;;;0.60;;
69629;SDS011;56857;52.212;5.496;2022-09-27T00:38:17;3.35;;;0.70;;
69629;SDS011;56857;52.212;5.496;2022-09-27T00:40:42;4.38;;;0.93;;
69629;SDS011;56857;52.212;5.496;2022-09-27T00:43:12;5.15;;;1.20;;
69629;SDS011;56857;52.212;5.496;2022-09-27T00:45:40;6.30;;;1.35;;
69629;SDS011;56857;52.212;5.496;2022-09-27T00:48:05;2.20;;;0.77;;
69629;SDS011;56857;52.212;5.496;2022-09-27T00:55:54;5.20;;;0.98;;
69629;SDS011;56857;52.212;5.496;2022-09-27T00:58:27;4.22;;;0.98;;
69629;SDS011;56857;52.212;5.496;2022-09-27T01:00:58;4.32;;;0.70;;
69629;SDS011;56857;52.212;5.496;2022-09-27T01:06:14;7.07;;;0.95;;
69629;SDS011;56857;52.212;5.496;2022-09-27T01:08:42;6.47;;;0.90;;
69629;SDS011;56857;52.212;5.496;2022-09-27T01:14:07;3.42;;;0.80;;
69629;SDS011;56857;52.212;5.496;2022-09-27T01:22:05;3.50;;;0.75;;
69629;SDS011;56857;52.212;5.496;2022-09-27T01:27:40;4.32;;;0.80;;
69629;SDS011;56857;52.212;5.496;2022-09-27T01:30:27;6.25;;;0.80;;
69629;SDS011;56857;52.212;5.496;2022-09-27T01:38:40;1.30;;;0.73;;
69629;SDS011;56857;52.212;5.496;2022-09-27T01:41:25;4.13;;;0.90;;
69629;SDS011;56857;52.212;5.496;2022-09-27T01:43:59;4.15;;;1.00;;
69629;SDS011;56857;52.212;5.496;2022-09-27T01:46:32;2.17;;;0.80;;
69629;SDS011;56857;52.212;5.496;2022-09-27T01:49:03;6.18;;;0.95;;
69629;SDS011;56857;52.212;5.496;2022-09-27T01:51:40;1.67;;;0.63;;
69629;SDS011;56857;52.212;5.496;2022-09-27T01:54:13;2.65;;;1.02;;
69629;SDS011;56857;52.212;5.496;2022-09-27T01:56:45;2.28;;;0.80;;
69629;SDS011;56857;52.212;5.496;2022-09-27T01:59:24;2.22;;;0.80;;
69629;SDS011;56857;52.212;5.496;2022-09-27T02:01:54;6.80;;;0.90;;
69629;SDS011;56857;52.212;5.496;2022-09-27T02:04:29;4.22;;;1.45;;
69629;SDS011;56857;52.212;5.496;2022-09-27T02:06:58;3.85;;;0.88;;
69629;SDS011;56857;52.212;5.496;2022-09-27T02:09:31;5.22;;;0.80;;
69629;SDS011;56857;52.212;5.496;2022-09-27T02:12:02;3.88;;;0.70;;
69629;SDS011;56857;52.212;5.496;2022-09-27T02:14:35;4.80;;;0.73;;
69629;SDS011;56857;52.212;5.496;2022-09-27T02:17:07;1.27;;;0.60;;
69629;SDS011;56857;52.212;5.496;2022-09-27T02:25:07;3.65;;;0.90;;
69629;SDS011;56857;52.212;5.496;2022-09-27T02:30:40;2.90;;;0.90;;
69629;SDS011;56857;52.212;5.496;2022-09-27T02:33:06;3.88;;;0.75;;
69629;SDS011;56857;52.212;5.496;2022-09-27T02:35:31;5.90;;;1.00;;
69629;SDS011;56857;52.212;5.496;2022-09-27T02:37:58;5.75;;;1.25;;
69629;SDS011;56857;52.212;5.496;2022-09-27T02:40:25;3.03;;;0.80;;
69629;SDS011;56857;52.212;5.496;2022-09-27T02:42:54;4.45;;;0.90;;
69629;SDS011;56857;52.212;5.496;2022-09-27T02:45:21;2.50;;;0.88;;
69629;SDS011;56857;52.212;5.496;2022-09-27T03:01:47;4.35;;;1.00;;
69629;SDS011;56857;52.212;5.496;2022-09-27T03:04:42;5.70;;;1.48;;
69629;SDS011;56857;52.212;5.496;2022-09-27T03:07:12;4.47;;;1.08;;
69629;SDS011;56857;52.212;5.496;2022-09-27T03:09:43;4.20;;;1.10;;
69629;SDS011;56857;52.212;5.496;2022-09-27T03:12:10;4.32;;;1.33;;
69629;SDS011;56857;52.212;5.496;2022-09-27T03:14:36;6.78;;;1.20;;
69629;SDS011;56857;52.212;5.496;2022-09-27T03:17:01;5.35;;;1.02;;
69629;SDS011;56857;52.212;5.496;2022-09-27T03:19:26;3.97;;;1.40;;
69629;SDS011;56857;52.212;5.496;2022-09-27T03:21:52;2.65;;;1.00;;
69629;SDS011;56857;52.212;5.496;2022-09-27T03:24:17;6.28;;;1.17;;
69629;SDS011;56857;52.212;5.496;2022-09-27T03:26:43;3.55;;;1.00;;
69629;SDS011;56857;52.212;5.496;2022-09-27T03:29:09;7.03;;;1.30;;
69629;SDS011;56857;52.212;5.496;2022-09-27T03:31:34;3.42;;;1.15;;
69629;SDS011;56857;52.212;5.496;2022-09-27T03:33:59;3.88;;;1.08;;
69629;SDS011;56857;52.212;5.496;2022-09-27T03:36:25;5.53;;;1.02;;
69629;SDS011;56857;52.212;5.496;2022-09-27T03:38:50;5.88;;;1.10;;
69629;SDS011;56857;52.212;5.496;2022-09-27T03:41:15;5.32;;;1.05;;
69629;SDS011;56857;52.212;5.496;2022-09-27T03:43:41;5.57;;;1.02;;
69629;SDS011;56857;52.212;5.496;2022-09-27T03:46:06;6.18;;;1.13;;
69629;SDS011;56857;52.212;5.496;2022-09-27T03:48:31;4.35;;;1.20;;
69629;SDS011;56857;52.212;5.496;2022-09-27T03:50:57;4.25;;;1.67;;
69629;SDS011;56857;52.212;5.496;2022-09-27T03:53:22;5.90;;;1.20;;
69629;SDS011;56857;52.212;5.496;2022-09-27T03:55:48;4.72;;;1.20;;
69629;SDS011;56857;52.212;5.496;2022-09-27T03:58:13;3.55;;;1.00;;
69629;SDS011;56857;52.212;5.496;2022-09-27T04:00:39;5.45;;;1.20;;
69629;SDS011;56857;52.212;5.496;2022-09-27T04:03:04;5.63;;;1.27;;
69629;SDS011;56857;52.212;5.496;2022-09-27T04:05:29;2.85;;;1.00;;
69629;SDS011;56857;52.212;5.496;2022-09-27T04:07:55;8.18;;;2.05;;
69629;SDS011;56857;52.212;5.496;2022-09-27T04:10:20;4.35;;;1.10;;
69629;SDS011;56857;52.212;5.496;2022-09-27T04:12:46;3.03;;;1.00;;
69629;SDS011;56857;52.212;5.496;2022-09-27T04:15:11;7.70;;;1.48;;
69629;SDS011;56857;52.212;5.496;2022-09-27T04:17:37;3.75;;;1.00;;
69629;SDS011;56857;52.212;5.496;2022-09-27T04:20:05;3.65;;;1.02;;
69629;SDS011;56857;52.212;5.496;2022-09-27T04:22:31;5.82;;;1.08;;
69629;SDS011;56857;52.212;5.496;2022-09-27T04:24:56;7.10;;;1.50;;
69629;SDS011;56857;52.212;5.496;2022-09-27T04:27:21;7.40;;;1.38;;
69629;SDS011;56857;52.212;5.496;2022-09-27T04:29:47;6.95;;;1.55;;
69629;SDS011;56857;52.212;5.496;2022-09-27T04:32:12;4.57;;;1.00;;
69629;SDS011;56857;52.212;5.496;2022-09-27T04:34:38;6.47;;;1.42;;
69629;SDS011;56857;52.212;5.496;2022-09-27T04:37:03;4.60;;;0.93;;
69629;SDS011;56857;52.212;5.496;2022-09-27T04:39:28;5.45;;;1.00;;
69629;SDS011;56857;52.212;5.496;2022-09-27T04:41:54;4.60;;;1.15;;
69629;SDS011;56857;52.212;5.496;2022-09-27T04:44:19;8.23;;;1.17;;
69629;SDS011;56857;52.212;5.496;2022-09-27T04:46:44;5.93;;;1.40;;
69629;SDS011;56857;52.212;5.496;2022-09-27T04:49:10;5.15;;;1.45;;
69629;SDS011;56857;52.212;5.496;2022-09-27T04:51:35;7.88;;;1.55;;
69629;SDS011;56857;52.212;5.496;2022-09-27T04:54:00;6.93;;;1.10;;
69629;SDS011;56857;52.212;5.496;2022-09-27T04:56:26;5.13;;;1.20;;
69629;SDS011;56857;52.212;5.496;2022-09-27T04:58:51;5.20;;;1.60;;
69629;SDS011;56857;52.212;5.496;2022-09-27T05:01:16;5.03;;;1.38;;
69629;SDS011;56857;52.212;5.496;2022-09-27T05:03:42;5.25;;;1.40;;
69629;SDS011;56857;52.212;5.496;2022-09-27T05:06:07;6.10;;;1.35;;
69629;SDS011;56857;52.212;5.496;2022-09-27T05:08:33;8.05;;;1.50;;
69629;SDS011;56857;52.212;5.496;2022-09-27T05:10:58;5.47;;;1.10;;
69629;SDS011;56857;52.212;5.496;2022-09-27T05:13:23;7.30;;;1.10;;
69629;SDS011;56857;52.212;5.496;2022-09-27T05:15:49;7.32;;;1.25;;
69629;SDS011;56857;52.212;5.496;2022-09-27T05:18:14;3.47;;;1.30;;
69629;SDS011;56857;52.212;5.496;2022-09-27T05:20:40;7.57;;;1.30;;
69629;SDS011;56857;52.212;5.496;2022-09-27T05:23:05;5.97;;;1.38;;
69629;SDS011;56857;52.212;5.496;2022-09-27T05:25:31;4.90;;;1.30;;
69629;SDS011;56857;52.212;5.496;2022-09-27T05:27:57;5.35;;;1.20;;
69629;SDS011;56857;52.212;5.496;2022-09-27T05:30:23;5.00;;;1.20;;
69629;SDS011;56857;52.212;5.496;2022-09-27T05:32:49;7.93;;;1.70;;
69629;SDS011;56857;52.212;5.496;2022-09-27T05:35:15;6.03;;;1.33;;
69629;SDS011;56857;52.212;5.496;2022-09-27T05:37:41;5.57;;;1.17;;
69629;SDS011;56857;52.212;5.496;2022-09-27T05:40:06;4.38;;;1.30;;
69629;SDS011;56857;52.212;5.496;2022-09-27T05:42:32;5.18;;;1.20;;
69629;SDS011;56857;52.212;5.496;2022-09-27T05:44:57;5.55;;;1.30;;
69629;SDS011;56857;52.212;5.496;2022-09-27T05:47:22;4.90;;;1.15;;
69629;SDS011;56857;52.212;5.496;2022-09-27T05:49:47;6.57;;;1.20;;
69629;SDS011;56857;52.212;5.496;2022-09-27T05:52:13;7.35;;;1.58;;
69629;SDS011;56857;52.212;5.496;2022-09-27T05:54:38;9.40;;;1.40;;
69629;SDS011;56857;52.212;5.496;2022-09-27T05:57:03;5.65;;;1.13;;
69629;SDS011;56857;52.212;5.496;2022-09-27T05:59:29;5.50;;;1.20;;
69629;SDS011;56857;52.212;5.496;2022-09-27T06:01:54;7.53;;;1.23;;
69629;SDS011;56857;52.212;5.496;2022-09-27T06:04:20;6.57;;;1.30;;
69629;SDS011;56857;52.212;5.496;2022-09-27T06:06:46;6.30;;;1.33;;
69629;SDS011;56857;52.212;5.496;2022-09-27T06:09:12;8.00;;;1.30;;
69629;SDS011;56857;52.212;5.496;2022-09-27T06:11:39;8.63;;;1.55;;
69629;SDS011;56857;52.212;5.496;2022-09-27T06:14:05;6.78;;;1.70;;
69629;SDS011;56857;52.212;5.496;2022-09-27T06:16:30;5.30;;;1.35;;
69629;SDS011;56857;52.212;5.496;2022-09-27T06:18:55;5.75;;;1.33;;
69629;SDS011;56857;52.212;5.496;2022-09-27T06:21:20;7.28;;;1.30;;
69629;SDS011;56857;52.212;5.496;2022-09-27T06:23:46;7.65;;;1.42;;
69629;SDS011;56857;52.212;5.496;2022-09-27T06:26:11;5.72;;;1.20;;
69629;SDS011;56857;52.212;5.496;2022-09-27T06:28:37;6.78;;;1.25;;
69629;SDS011;56857;52.212;5.496;2022-09-27T06:31:04;9.00;;;1.50;;
69629;SDS011;56857;52.212;5.496;2022-09-27T06:33:31;6.22;;;1.45;;
69629;SDS011;56857;52.212;5.496;2022-09-27T06:35:56;8.57;;;1.27;;
69629;SDS011;56857;52.212;5.496;2022-09-27T06:38:26;7.93;;;1.88;;
69629;SDS011;56857;52.212;5.496;2022-09-27T06:40:51;3.67;;;1.17;;
69629;SDS011;56857;52.212;5.496;2022-09-27T06:43:18;4.53;;;1.20;;
69629;SDS011;56857;52.212;5.496;2022-09-27T06:45:44;5.50;;;1.40;;
69629;SDS011;56857;52.212;5.496;2022-09-27T06:48:11;7.47;;;1.60;;
69629;SDS011;56857;52.212;5.496;2022-09-27T06:50:38;9.45;;;1.90;;
69629;SDS011;56857;52.212;5.496;2022-09-27T06:53:06;6.45;;;1.83;;
69629;SDS011;56857;52.212;5.496;2022-09-27T06:55:33;6.22;;;1.33;;
69629;SDS011;56857;52.212;5.496;2022-09-27T06:57:59;7.13;;;1.40;;
69629;SDS011;56857;52.212;5.496;2022-09-27T07:00:25;5.25;;;1.40;;
69629;SDS011;56857;52.212;5.496;2022-09-27T07:02:55;5.03;;;1.27;;
69629;SDS011;56857;52.212;5.496;2022-09-27T07:05:23;3.38;;;1.38;;
69629;SDS011;56857;52.212;5.496;2022-09-27T07:07:48;3.47;;;1.33;;
69629;SDS011;56857;52.212;5.496;2022-09-27T07:10:13;4.80;;;1.80;;
69629;SDS011;56857;52.212;5.496;2022-09-27T07:12:39;5.70;;;1.52;;
69629;SDS011;56857;52.212;5.496;2022-09-27T07:15:05;8.23;;;1.38;;
69629;SDS011;56857;52.212;5.496;2022-09-27T07:17:31;7.40;;;1.55;;
69629;SDS011;56857;52.212;5.496;2022-09-27T07:19:56;5.45;;;1.55;;
69629;SDS011;56857;52.212;5.496;2022-09-27T07:22:23;6.47;;;1.13;;
69629;SDS011;56857;52.212;5.496;2022-09-27T07:24:49;7.97;;;1.40;;
69629;SDS011;56857;52.212;5.496;2022-09-27T07:27:14;5.53;;;1.40;;
69629;SDS011;56857;52.212;5.496;2022-09-27T07:29:40;3.80;;;1.40;;
69629;SDS011;56857;52.212;5.496;2022-09-27T07:32:06;4.32;;;1.30;;
69629;SDS011;56857;52.212;5.496;2022-09-27T07:34:34;11.02;;;1.50;;
69629;SDS011;56857;52.212;5.496;2022-09-27T07:37:00;4.63;;;1.27;;
69629;SDS011;56857;52.212;5.496;2022-09-27T09:35:11;8.52;;;1.52;;
69629;SDS011;56857;52.212;5.496;2022-09-27T09:37:57;4.57;;;1.70;;
69629;SDS011;56857;52.212;5.496;2022-09-27T09:40:38;7.43;;;1.70;;
69629;SDS011;56857;52.212;5.496;2022-09-27T09:46:01;8.68;;;3.72;;
69629;SDS011;56857;52.212;5.496;2022-09-27T09:51:21;4.53;;;2.03;;
69629;SDS011;56857;52.212;5.496;2022-09-27T09:54:13;5.32;;;1.92;;
69629;SDS011;56857;52.212;5.496;2022-09-27T09:56:40;8.13;;;3.05;;
69629;SDS011;56857;52.212;5.496;2022-09-27T09:59:23;10.20;;;3.95;;
69629;SDS011;56857;52.212;5.496;2022-09-27T10:01:53;9.02;;;2.90;;
69629;SDS011;56857;52.212;5.496;2022-09-27T10:04:25;8.68;;;2.30;;
69629;SDS011;56857;52.212;5.496;2022-09-27T10:06:52;12.85;;;4.82;;
69629;SDS011;56857;52.212;5.496;2022-09-27T10:09:22;10.70;;;4.32;;
69629;SDS011;56857;52.212;5.496;2022-09-27T10:11:50;14.10;;;3.80;;
69629;SDS011;56857;52.212;5.496;2022-09-27T10:14:17;10.15;;;3.72;;
69629;SDS011;56857;52.212;5.496;2022-09-27T10:16:45;6.55;;;2.00;;
69629;SDS011;56857;52.212;5.496;2022-09-27T10:19:14;6.78;;;2.08;;
69629;SDS011;56857;52.212;5.496;2022-09-27T10:21:42;4.40;;;1.98;;
69629;SDS011;56857;52.212;5.496;2022-09-27T10:24:13;7.60;;;2.03;;
69629;SDS011;56857;52.212;5.496;2022-09-27T10:26:41;8.70;;;2.47;;
69629;SDS011;56857;52.212;5.496;2022-09-27T10:31:41;5.93;;;2.20;;
69629;SDS011;56857;52.212;5.496;2022-09-27T10:34:15;24.40;;;14.50;;
69629;SDS011;56857;52.212;5.496;2022-09-27T10:37:14;5.03;;;1.83;;
69629;SDS011;56857;52.212;5.496;2022-09-27T10:39:46;12.25;;;5.15;;
69629;SDS011;56857;52.212;5.496;2022-09-27T10:45:21;9.23;;;4.03;;
69629;SDS011;56857;52.212;5.496;2022-09-27T10:47:51;5.47;;;1.75;;
69629;SDS011;56857;52.212;5.496;2022-09-27T10:50:18;5.00;;;1.60;;
69629;SDS011;56857;52.212;5.496;2022-09-27T10:52:47;5.13;;;1.70;;
69629;SDS011;56857;52.212;5.496;2022-09-27T10:55:23;4.45;;;1.40;;
69629;SDS011;56857;52.212;5.496;2022-09-27T10:57:51;4.05;;;1.67;;
69629;SDS011;56857;52.212;5.496;2022-09-27T11:00:21;5.35;;;1.33;;
69629;SDS011;56857;52.212;5.496;2022-09-27T11:02:51;5.93;;;1.70;;
69629;SDS011;56857;52.212;5.496;2022-09-27T11:07:49;5.55;;;1.95;;
69629;SDS011;56857;52.212;5.496;2022-09-27T11:10:23;8.52;;;2.03;;
69629;SDS011;56857;52.212;5.496;2022-09-27T11:22:03;5.40;;;2.40;;
69629;SDS011;56857;52.212;5.496;2022-09-27T11:25:01;6.47;;;1.20;;
69629;SDS011;56857;52.212;5.496;2022-09-27T11:30:34;5.93;;;2.35;;
69629;SDS011;56857;52.212;5.496;2022-09-27T11:36:12;5.05;;;2.10;;
69629;SDS011;56857;52.212;5.496;2022-09-27T11:49:57;7.85;;;3.17;;
69629;SDS011;56857;52.212;5.496;2022-09-27T11:57:55;5.03;;;2.08;;
69629;SDS011;56857;52.212;5.496;2022-09-27T12:03:41;6.00;;;1.90;;
69629;SDS011;56857;52.212;5.496;2022-09-27T12:09:14;4.10;;;2.10;;
69629;SDS011;56857;52.212;5.496;2022-09-27T12:11:54;4.20;;;1.63;;
69629;SDS011;56857;52.212;5.496;2022-09-27T12:14:34;4.35;;;1.55;;
69629;SDS011;56857;52.212;5.496;2022-09-27T12:17:01;3.90;;;1.55;;
69629;SDS011;56857;52.212;5.496;2022-09-27T12:19:31;4.63;;;1.60;;
69629;SDS011;56857;52.212;5.496;2022-09-27T12:22:05;5.00;;;2.03;;
69629;SDS011;56857;52.212;5.496;2022-09-27T12:24:35;5.22;;;1.50;;
69629;SDS011;56857;52.212;5.496;2022-09-27T12:27:06;5.63;;;1.60;;
69629;SDS011;56857;52.212;5.496;2022-09-27T12:29:36;6.80;;;1.42;;
69629;SDS011;56857;52.212;5.496;2022-09-27T12:37:30;3.95;;;1.80;;
69629;SDS011;56857;52.212;5.496;2022-09-27T12:42:49;3.83;;;2.15;;
69629;SDS011;56857;52.212;5.496;2022-09-27T12:45:41;4.72;;;1.40;;
69629;SDS011;56857;52.212;5.496;2022-09-27T12:48:23;3.15;;;1.65;;
69629;SDS011;56857;52.212;5.496;2022-09-27T12:51:08;6.00;;;1.88;;
69629;SDS011;56857;52.212;5.496;2022-09-27T12:59:41;5.20;;;1.88;;
69629;SDS011;56857;52.212;5.496;2022-09-27T13:13:17;6.68;;;2.00;;
69629;SDS011;56857;52.212;5.496;2022-09-27T13:15:45;6.25;;;2.10;;
69629;SDS011;56857;52.212;5.496;2022-09-27T13:20:52;5.05;;;2.00;;
69629;SDS011;56857;52.212;5.496;2022-09-27T13:25:50;5.53;;;2.60;;
69629;SDS011;56857;52.212;5.496;2022-09-27T13:30:50;6.45;;;2.00;;
69629;SDS011;56857;52.212;5.496;2022-09-27T13:44:12;3.60;;;1.48;;
69629;SDS011;56857;52.212;5.496;2022-09-27T13:46:53;6.47;;;1.80;;
69629;SDS011;56857;52.212;5.496;2022-09-27T13:49:24;5.30;;;1.45;;
69629;SDS011;56857;52.212;5.496;2022-09-27T13:52:26;3.80;;;1.70;;
69629;SDS011;56857;52.212;5.496;2022-09-27T13:58:04;10.20;;;4.25;;
69629;SDS011;56857;52.212;5.496;2022-09-27T14:00:43;7.93;;;3.50;;
69629;SDS011;56857;52.212;5.496;2022-09-27T14:03:14;9.52;;;4.25;;
69629;SDS011;56857;52.212;5.496;2022-09-27T14:05:58;6.13;;;2.35;;
69629;SDS011;56857;52.212;5.496;2022-09-27T14:08:47;9.40;;;4.50;;
69629;SDS011;56857;52.212;5.496;2022-09-27T14:11:33;5.45;;;2.15;;
69629;SDS011;56857;52.212;5.496;2022-09-27T14:14:00;7.88;;;3.97;;
69629;SDS011;56857;52.212;5.496;2022-09-27T14:16:29;3.63;;;2.17;;
69629;SDS011;56857;52.212;5.496;2022-09-27T14:18:58;15.95;;;6.95;;
69629;SDS011;56857;52.212;5.496;2022-09-27T14:21:31;3.25;;;1.35;;
69629;SDS011;56857;52.212;5.496;2022-09-27T14:27:12;6.20;;;1.90;;
69629;SDS011;56857;52.212;5.496;2022-09-27T14:29:50;3.17;;;1.65;;
69629;SDS011;56857;52.212;5.496;2022-09-27T14:32:20;2.78;;;1.52;;
69629;SDS011;56857;52.212;5.496;2022-09-27T14:40:04;4.55;;;1.60;;
69629;SDS011;56857;52.212;5.496;2022-09-27T14:42:42;4.18;;;1.85;;
69629;SDS011;56857;52.212;5.496;2022-09-27T14:45:26;3.60;;;1.17;;
69629;SDS011;56857;52.212;5.496;2022-09-27T14:47:56;4.60;;;1.02;;
69629;SDS011;56857;52.212;5.496;2022-09-27T14:50:25;6.03;;;1.67;;
69629;SDS011;56857;52.212;5.496;2022-09-27T14:52:54;3.05;;;1.48;;
69629;SDS011;56857;52.212;5.496;2022-09-27T14:55:23;3.42;;;1.50;;
69629;SDS011;56857;52.212;5.496;2022-09-27T14:58:00;2.90;;;1.23;;
69629;SDS011;56857;52.212;5.496;2022-09-27T15:00:27;5.78;;;1.80;;
69629;SDS011;56857;52.212;5.496;2022-09-27T15:02:55;7.13;;;3.42;;
69629;SDS011;56857;52.212;5.496;2022-09-27T15:05:22;5.13;;;2.15;;
69629;SDS011;56857;52.212;5.496;2022-09-27T15:07:52;8.00;;;3.55;;
69629;SDS011;56857;52.212;5.496;2022-09-27T15:10:20;9.02;;;3.15;;
69629;SDS011;56857;52.212;5.496;2022-09-27T15:12:49;6.50;;;2.53;;
69629;SDS011;56857;52.212;5.496;2022-09-27T15:15:21;4.93;;;2.33;;
69629;SDS011;56857;52.212;5.496;2022-09-27T15:17:49;4.65;;;2.35;;
69629;SDS011;56857;52.212;5.496;2022-09-27T15:20:25;4.15;;;2.20;;
69629;SDS011;56857;52.212;5.496;2022-09-27T15:22:53;6.40;;;2.00;;
69629;SDS011;56857;52.212;5.496;2022-09-27T15:27:57;4.95;;;2.28;;
69629;SDS011;56857;52.212;5.496;2022-09-27T15:30:35;4.68;;;2.22;;
69629;SDS011;56857;52.212;5.496;2022-09-27T15:33:18;10.07;;;1.95;;
69629;SDS011;56857;52.212;5.496;2022-09-27T15:43:32;4.57;;;1.80;;
69629;SDS011;56857;52.212;5.496;2022-09-27T15:46:03;5.47;;;2.50;;
69629;SDS011;56857;52.212;5.496;2022-09-27T15:51:47;7.95;;;2.95;;
69629;SDS011;56857;52.212;5.496;2022-09-27T15:54:20;6.28;;;2.70;;
69629;SDS011;56857;52.212;5.496;2022-09-27T15:56:48;7.22;;;2.75;;
69629;SDS011;56857;52.212;5.496;2022-09-27T15:59:18;5.22;;;2.47;;
69629;SDS011;56857;52.212;5.496;2022-09-27T16:01:46;5.95;;;2.80;;
69629;SDS011;56857;52.212;5.496;2022-09-27T16:04:12;7.40;;;2.85;;
69629;SDS011;56857;52.212;5.496;2022-09-27T16:06:37;7.57;;;2.70;;
69629;SDS011;56857;52.212;5.496;2022-09-27T16:09:04;6.55;;;3.53;;
69629;SDS011;56857;52.212;5.496;2022-09-27T16:11:29;7.03;;;2.53;;
69629;SDS011;56857;52.212;5.496;2022-09-27T16:13:56;4.43;;;2.58;;
69629;SDS011;56857;52.212;5.496;2022-09-27T16:16:21;4.15;;;1.83;;
69629;SDS011;56857;52.212;5.496;2022-09-27T16:18:47;5.45;;;2.50;;
69629;SDS011;56857;52.212;5.496;2022-09-27T16:21:13;5.85;;;2.58;;
69629;SDS011;56857;52.212;5.496;2022-09-27T16:23:39;7.35;;;3.30;;
69629;SDS011;56857;52.212;5.496;2022-09-27T16:26:04;7.10;;;2.78;;
69629;SDS011;56857;52.212;5.496;2022-09-27T16:28:31;6.18;;;2.65;;
69629;SDS011;56857;52.212;5.496;2022-09-27T16:31:03;4.40;;;2.35;;
69629;SDS011;56857;52.212;5.496;2022-09-27T16:33:30;7.28;;;2.70;;
69629;SDS011;56857;52.212;5.496;2022-09-27T16:35:56;8.25;;;3.30;;
69629;SDS011;56857;52.212;5.496;2022-09-27T16:38:21;5.90;;;2.78;;
69629;SDS011;56857;52.212;5.496;2022-09-27T16:40:47;5.05;;;2.95;;
69629;SDS011;56857;52.212;5.496;2022-09-27T16:43:12;6.40;;;3.05;;
69629;SDS011;56857;52.212;5.496;2022-09-27T16:45:37;5.32;;;3.08;;
69629;SDS011;56857;52.212;5.496;2022-09-27T16:48:03;6.32;;;3.03;;
69629;SDS011;56857;52.212;5.496;2022-09-27T16:50:28;7.88;;;3.25;;
69629;SDS011;56857;52.212;5.496;2022-09-27T16:52:53;5.53;;;3.03;;
69629;SDS011;56857;52.212;5.496;2022-09-27T16:55:18;7.20;;;3.85;;
69629;SDS011;56857;52.212;5.496;2022-09-27T16:57:44;5.68;;;2.70;;
69629;SDS011;56857;52.212;5.496;2022-09-27T17:00:09;6.60;;;3.53;;
69629;SDS011;56857;52.212;5.496;2022-09-27T17:02:35;7.75;;;3.70;;
69629;SDS011;56857;52.212;5.496;2022-09-27T17:05:01;7.72;;;4.72;;
69629;SDS011;56857;52.212;5.496;2022-09-27T17:07:26;12.02;;;4.10;;
69629;SDS011;56857;52.212;5.496;2022-09-27T17:09:51;8.10;;;3.47;;
69629;SDS011;56857;52.212;5.496;2022-09-27T17:12:17;7.35;;;3.50;;
69629;SDS011;56857;52.212;5.496;2022-09-27T17:14:42;8.32;;;3.80;;
69629;SDS011;56857;52.212;5.496;2022-09-27T17:17:07;10.65;;;4.45;;
69629;SDS011;56857;52.212;5.496;2022-09-27T17:19:33;8.15;;;3.55;;
69629;SDS011;56857;52.212;5.496;2022-09-27T17:21:58;10.95;;;3.88;;
69629;SDS011;56857;52.212;5.496;2022-09-27T17:24:24;9.43;;;3.55;;
69629;SDS011;56857;52.212;5.496;2022-09-27T17:26:50;8.07;;;3.03;;
69629;SDS011;56857;52.212;5.496;2022-09-27T17:29:16;9.07;;;2.92;;
69629;SDS011;56857;52.212;5.496;2022-09-27T17:31:42;7.03;;;2.70;;
69629;SDS011;56857;52.212;5.496;2022-09-27T17:34:08;7.45;;;2.42;;
69629;SDS011;56857;52.212;5.496;2022-09-27T17:36:36;7.68;;;3.00;;
69629;SDS011;56857;52.212;5.496;2022-09-27T17:39:03;7.50;;;3.38;;
69629;SDS011;56857;52.212;5.496;2022-09-27T17:41:29;6.88;;;2.63;;
69629;SDS011;56857;52.212;5.496;2022-09-27T17:43:58;6.20;;;3.47;;
69629;SDS011;56857;52.212;5.496;2022-09-27T17:46:25;7.00;;;3.35;;
69629;SDS011;56857;52.212;5.496;2022-09-27T17:48:55;7.05;;;3.47;;
69629;SDS011;56857;52.212;5.496;2022-09-27T17:51:21;8.05;;;3.90;;
69629;SDS011;56857;52.212;5.496;2022-09-27T17:53:47;17.40;;;4.75;;
69629;SDS011;56857;52.212;5.496;2022-09-27T17:56:13;9.40;;;3.20;;
69629;SDS011;56857;52.212;5.496;2022-09-27T17:58:50;12.35;;;3.63;;
69629;SDS011;56857;52.212;5.496;2022-09-27T18:01:17;9.00;;;3.53;;
69629;SDS011;56857;52.212;5.496;2022-09-27T18:03:44;8.82;;;4.18;;
69629;SDS011;56857;52.212;5.496;2022-09-27T18:06:10;7.75;;;3.55;;
69629;SDS011;56857;52.212;5.496;2022-09-27T18:08:37;11.25;;;3.97;;
69629;SDS011;56857;52.212;5.496;2022-09-27T18:11:06;11.85;;;4.15;;
69629;SDS011;56857;52.212;5.496;2022-09-27T18:13:34;9.57;;;3.95;;
69629;SDS011;56857;52.212;5.496;2022-09-27T18:15:59;9.73;;;4.55;;
69629;SDS011;56857;52.212;5.496;2022-09-27T18:18:24;8.05;;;3.63;;
69629;SDS011;56857;52.212;5.496;2022-09-27T18:20:50;7.43;;;3.60;;
69629;SDS011;56857;52.212;5.496;2022-09-27T18:23:15;10.60;;;3.13;;
69629;SDS011;56857;52.212;5.496;2022-09-27T18:25:40;8.90;;;3.50;;
69629;SDS011;56857;52.212;5.496;2022-09-27T18:28:06;9.02;;;4.35;;
69629;SDS011;56857;52.212;5.496;2022-09-27T18:30:34;6.82;;;3.33;;
69629;SDS011;56857;52.212;5.496;2022-09-27T18:32:59;8.93;;;4.55;;
69629;SDS011;56857;52.212;5.496;2022-09-27T18:35:24;9.63;;;4.20;;
69629;SDS011;56857;52.212;5.496;2022-09-27T18:37:50;7.70;;;4.22;;
69629;SDS011;56857;52.212;5.496;2022-09-27T18:40:15;8.30;;;4.03;;
69629;SDS011;56857;52.212;5.496;2022-09-27T18:42:40;7.97;;;3.15;;
69629;SDS011;56857;52.212;5.496;2022-09-27T18:45:06;9.13;;;4.53;;
69629;SDS011;56857;52.212;5.496;2022-09-27T18:47:32;11.50;;;4.80;;
69629;SDS011;56857;52.212;5.496;2022-09-27T18:49:57;14.38;;;5.93;;
69629;SDS011;56857;52.212;5.496;2022-09-27T18:52:22;8.93;;;4.40;;
69629;SDS011;56857;52.212;5.496;2022-09-27T18:54:48;7.30;;;3.60;;
69629;SDS011;56857;52.212;5.496;2022-09-27T18:57:13;9.98;;;4.70;;
69629;SDS011;56857;52.212;5.496;2022-09-27T18:59:38;12.77;;;4.78;;
69629;SDS011;56857;52.212;5.496;2022-09-27T19:02:04;8.98;;;5.22;;
69629;SDS011;56857;52.212;5.496;2022-09-27T19:04:29;7.60;;;4.55;;
69629;SDS011;56857;52.212;5.496;2022-09-27T19:06:55;7.10;;;4.30;;
69629;SDS011;56857;52.212;5.496;2022-09-27T19:09:21;7.40;;;3.75;;
69629;SDS011;56857;52.212;5.496;2022-09-27T19:11:46;9.75;;;4.53;;
69629;SDS011;56857;52.212;5.496;2022-09-27T19:14:16;8.85;;;4.60;;
69629;SDS011;56857;52.212;5.496;2022-09-27T19:16:43;9.52;;;4.10;;
69629;SDS011;56857;52.212;5.496;2022-09-27T19:19:08;10.88;;;4.55;;
69629;SDS011;56857;52.212;5.496;2022-09-27T19:21:34;7.78;;;5.10;;
69629;SDS011;56857;52.212;5.496;2022-09-27T19:23:59;7.40;;;4.70;;
69629;SDS011;56857;52.212;5.496;2022-09-27T19:26:25;8.55;;;4.25;;
69629;SDS011;56857;52.212;5.496;2022-09-27T19:28:51;7.30;;;3.50;;
69629;SDS011;56857;52.212;5.496;2022-09-27T19:31:18;8.98;;;4.53;;
69629;SDS011;56857;52.212;5.496;2022-09-27T19:33:45;10.43;;;5.03;;
69629;SDS011;56857;52.212;5.496;2022-09-27T19:36:12;8.50;;;5.05;;
69629;SDS011;56857;52.212;5.496;2022-09-27T19:38:39;10.65;;;4.82;;